Time;durP1;ratioP1;P1;durP2;ratioP2;P2;SDS_P1;SDS_P2;PMS_P1;PMS_P2;Temp;Humidity;BMP_temperature;BMP_pressure;BME280_temperature;BME280_humidity;BME280_pressure;Samples;Min_cycle;Max_cycle;Signal;HPM_P1;HPM_P2
2022/11/15 00:00:56;;;;;;;;;7.00;7.00;;;;;13.94;72.40;100473.78;2094128;28;46261;-61
2022/11/15 00:01:57;;;;;;;;;6.33;6.33;;;;;13.94;71.97;100479.13;2091736;28;46837;-59
2022/11/15 00:02:57;;;;;;;;;8.00;8.00;;;;;13.94;72.25;100475.59;2100056;28;46848;-61
2022/11/15 00:03:57;;;;;;;;;7.33;7.33;;;;;13.94;72.34;100480.94;2096807;27;46372;-61
2022/11/15 00:04:58;;;;;;;;;6.00;6.00;;;;;13.93;72.57;100473.84;2093977;28;46397;-62
2022/11/15 00:06:03;;;;;;;;;8.67;8.00;;;;;13.92;71.95;100481.00;2093951;28;46267;-61
2022/11/15 00:07:04;;;;;;;;;7.50;5.75;;;;;13.91;72.06;100473.94;2094218;28;46545;-61
2022/11/15 00:08:04;;;;;;;;;5.00;5.00;;;;;13.92;72.03;100480.13;2094125;28;46779;-60
2022/11/15 00:09:04;;;;;;;;;6.33;5.67;;;;;13.91;72.23;100479.25;2096037;28;46017;-61
2022/11/15 00:10:05;;;;;;;;;7.00;6.33;;;;;13.90;72.24;100472.19;2090252;28;46592;-60
2022/11/15 00:11:06;;;;;;;;;7.00;7.00;;;;;13.89;72.22;100477.59;2095993;28;46637;-60
2022/11/15 00:12:06;;;;;;;;;6.00;6.00;;;;;13.87;71.87;100483.00;2094554;28;46865;-60
2022/11/15 00:13:11;;;;;;;;;5.33;5.33;;;;;13.86;71.74;100475.91;2086456;28;46115;-59
2022/11/15 00:14:11;;;;;;;;;6.50;6.00;;;;;13.85;71.87;100474.19;2091260;28;46511;-60
2022/11/15 00:15:11;;;;;;;;;5.00;5.00;;;;;13.84;72.11;100478.63;2086734;28;46234;-60
2022/11/15 00:16:12;;;;;;;;;8.00;7.00;;;;;13.84;71.84;100477.75;2093422;28;47019;-61
2022/11/15 00:17:12;;;;;;;;;5.33;5.33;;;;;13.83;71.78;100468.88;2095124;28;45888;-60
2022/11/15 00:18:14;;;;;;;;;8.00;8.00;;;;;13.84;71.87;100469.75;2093073;28;46629;-59
2022/11/15 00:19:14;;;;;;;;;6.00;6.00;;;;;13.84;71.98;100475.94;2094713;28;46390;-60
2022/11/15 00:20:15;;;;;;;;;7.00;6.33;;;;;13.84;72.18;100467.06;2090274;28;45147;-60
2022/11/15 00:21:16;;;;;;;;;8.00;7.33;;;;;13.83;71.58;100476.88;2094160;28;46687;-59
2022/11/15 00:22:16;;;;;;;;;7.75;6.50;;;;;13.81;71.82;100461.88;2090959;28;45225;-61
2022/11/15 00:23:17;;;;;;;;;5.00;5.00;;;;;13.79;71.83;100464.59;2094404;28;45565;-60
2022/11/15 00:24:17;;;;;;;;;7.00;7.00;;;;;13.76;71.47;100462.06;2094855;28;46665;-60
2022/11/15 00:25:17;;;;;;;;;6.67;6.67;;;;;13.74;71.50;100457.72;2094084;28;46371;-60
2022/11/15 00:26:18;;;;;;;;;6.00;6.00;;;;;13.71;71.44;100453.34;2094549;28;46430;-61
2022/11/15 00:27:18;;;;;;;;;7.00;7.00;;;;;13.70;71.62;100454.28;2094299;28;46209;-60
2022/11/15 00:28:18;;;;;;;;;8.67;7.67;;;;;13.68;71.61;100456.16;2081233;28;46513;-61
2022/11/15 00:29:19;;;;;;;;;7.00;7.00;;;;;13.68;71.50;100460.59;2077441;28;46380;-60
2022/11/15 00:30:19;;;;;;;;;8.00;5.33;;;;;13.67;71.66;100454.41;2094188;28;46244;-59
2022/11/15 00:31:19;;;;;;;;;7.33;6.67;;;;;13.67;71.95;100458.88;2084925;28;46858;-60
2022/11/15 00:32:19;;;;;;;;;5.33;5.00;;;;;13.67;71.52;100453.53;2077915;28;46661;-61
2022/11/15 00:33:20;;;;;;;;;6.00;5.67;;;;;13.65;71.76;100450.06;2093323;28;46456;-58
2022/11/15 00:34:20;;;;;;;;;7.00;7.00;;;;;13.63;71.67;100451.94;2094560;28;46297;-61
2022/11/15 00:35:21;;;;;;;;;6.33;6.33;;;;;13.63;71.52;100457.25;2094046;28;46612;-59
2022/11/15 00:36:21;;;;;;;;;4.33;3.33;;;;;13.62;71.50;100452.84;2091473;28;46288;-60
2022/11/15 00:37:22;;;;;;;;;8.00;6.33;;;;;13.60;71.38;100450.25;2094125;28;45196;-59
2022/11/15 00:38:22;;;;;;;;;4.67;4.67;;;;;13.59;71.57;100453.81;2093995;28;46288;-60
2022/11/15 00:39:22;;;;;;;;;5.33;5.00;;;;;13.57;71.54;100454.81;2086845;28;45300;-60
2022/11/15 00:40:22;;;;;;;;;4.67;4.67;;;;;13.55;71.66;100450.41;2091486;28;47324;-60
2022/11/15 00:41:23;;;;;;;;;4.67;4.67;;;;;13.54;71.78;100443.34;2091664;28;46559;-59
2022/11/15 00:42:23;;;;;;;;;6.00;5.67;;;;;13.55;71.73;100452.22;2094631;28;46995;-59
2022/11/15 00:43:23;;;;;;;;;4.33;4.33;;;;;13.55;71.81;100446.88;2093444;28;46697;-58
2022/11/15 00:44:24;;;;;;;;;4.33;4.33;;;;;13.54;71.51;100447.81;2091270;28;46629;-61
2022/11/15 00:45:25;;;;;;;;;7.00;5.00;;;;;13.52;71.45;100433.66;2094891;28;46803;-61
2022/11/15 00:46:26;;;;;;;;;5.50;4.00;;;;;13.53;71.70;100438.06;2095599;28;46408;-60
2022/11/15 00:47:26;;;;;;;;;5.67;4.00;;;;;13.53;71.53;100441.59;2094667;28;46129;-59
2022/11/15 00:48:26;;;;;;;;;6.33;6.00;;;;;13.52;71.59;100439.88;2092377;28;47209;-59
2022/11/15 00:49:26;;;;;;;;;5.00;5.00;;;;;13.53;71.22;100438.06;2094443;28;46637;-58
2022/11/15 00:50:27;;;;;;;;;4.33;4.33;;;;;13.52;71.37;100442.53;2095524;28;46503;-59
2022/11/15 00:51:27;;;;;;;;;4.33;4.33;;;;;13.52;71.58;100442.53;2093638;28;46312;-59
2022/11/15 00:52:27;;;;;;;;;5.67;5.67;;;;;13.50;71.32;100432.88;2095103;28;45864;-61
2022/11/15 00:53:28;;;;;;;;;5.00;5.00;;;;;13.50;71.29;100432.88;2094381;28;46307;-60
2022/11/15 00:54:28;;;;;;;;;4.67;3.00;;;;;13.50;71.07;100444.41;2090282;28;46162;-61
2022/11/15 00:55:28;;;;;;;;;3.00;3.00;;;;;13.48;71.23;100446.25;2092865;28;46864;-60
2022/11/15 00:56:29;;;;;;;;;3.00;3.00;;;;;13.47;71.22;100441.00;2091522;28;45878;-58
2022/11/15 00:57:29;;;;;;;;;4.00;3.67;;;;;13.45;70.91;100435.69;2094707;27;46232;-61
2022/11/15 00:58:29;;;;;;;;;4.67;4.67;;;;;13.44;71.00;100438.41;2105519;27;46299;-60
2022/11/15 00:59:30;;;;;;;;;6.67;5.00;;;;;13.42;71.34;100440.28;2095161;28;46446;-60
2022/11/15 01:00:30;;;;;;;;;3.00;3.00;;;;;13.40;71.24;100443.00;2092719;28;46683;-60
2022/11/15 01:01:30;;;;;;;;;3.33;3.33;;;;;13.38;71.01;100441.31;2098361;28;46683;-59
2022/11/15 01:02:31;;;;;;;;;4.00;4.00;;;;;13.37;70.87;100437.78;2097123;28;46849;-60
2022/11/15 01:03:33;;;;;;;;;4.33;4.33;;;;;13.37;70.88;100431.59;2100059;27;46674;-58
2022/11/15 01:04:33;;;;;;;;;4.25;3.75;;;;;13.38;70.89;100441.31;2096018;28;46563;-60
2022/11/15 01:05:33;;;;;;;;;4.00;4.00;;;;;13.35;71.09;100429.00;2095117;28;46320;-60
2022/11/15 01:06:34;;;;;;;;;7.00;6.00;;;;;13.36;70.94;100430.72;2098816;27;46209;-60
2022/11/15 01:07:34;;;;;;;;;3.67;3.67;;;;;13.35;70.80;100428.13;2094860;28;46886;-60
2022/11/15 01:08:34;;;;;;;;;7.33;6.33;;;;;13.34;71.05;100432.59;2092655;28;46273;-59
2022/11/15 01:09:35;;;;;;;;;4.33;4.00;;;;;13.34;70.89;100427.25;2098595;28;46855;-59
2022/11/15 01:10:36;;;;;;;;;5.00;3.00;;;;;13.35;71.06;100433.47;2097557;28;46822;-60
2022/11/15 01:11:37;;;;;;;;;5.75;5.25;;;;;13.33;70.83;100424.63;2100145;27;45807;-60
2022/11/15 01:12:37;;;;;;;;;5.67;4.00;;;;;13.32;71.02;100425.56;2095904;28;46188;-61
2022/11/15 01:13:39;;;;;;;;;4.00;4.00;;;;;13.31;70.74;100427.34;2095019;28;46757;-60
2022/11/15 01:14:39;;;;;;;;;5.00;3.75;;;;;13.31;70.68;100422.00;2097687;27;47111;-61
2022/11/15 01:15:41;;;;;;;;;3.00;3.00;;;;;13.30;70.70;100422.94;2095275;28;46291;-59
2022/11/15 01:16:41;;;;;;;;;4.00;3.75;;;;;13.31;70.72;100421.16;2095603;28;46899;-60
2022/11/15 01:17:41;;;;;;;;;5.67;5.33;;;;;13.29;70.59;100421.22;2095104;28;46243;-61
2022/11/15 01:18:42;;;;;;;;;4.00;2.67;;;;;13.28;70.51;100424.81;2094782;28;46479;-61
2022/11/15 01:19:42;;;;;;;;;2.67;2.67;;;;;13.28;70.37;100421.28;2099042;27;45535;-60
2022/11/15 01:20:43;;;;;;;;;3.00;3.00;;;;;13.26;70.74;100416.00;2097784;28;46834;-58
2022/11/15 01:21:43;;;;;;;;;4.00;4.00;;;;;13.27;70.49;100419.53;2095249;28;46388;-61
2022/11/15 01:22:44;;;;;;;;;5.67;4.00;;;;;13.26;70.52;100421.34;2097347;27;46621;-59
2022/11/15 01:23:44;;;;;;;;;4.00;3.00;;;;;13.25;70.88;100417.81;2094367;28;46530;-60
2022/11/15 01:24:45;;;;;;;;;4.00;4.00;;;;;13.25;70.47;100409.81;2095345;28;46897;-60
2022/11/15 01:25:45;;;;;;;;;5.67;4.00;;;;;13.28;70.74;100415.94;2095942;28;46581;-60
2022/11/15 01:26:45;;;;;;;;;3.00;3.00;;;;;13.28;70.31;100410.63;2092541;28;46482;-60
2022/11/15 01:27:46;;;;;;;;;3.67;3.67;;;;;13.28;70.53;100411.47;2093742;28;46130;-60
2022/11/15 01:28:46;;;;;;;;;6.00;4.33;;;;;13.29;70.45;100415.00;2094159;28;46414;-59
2022/11/15 01:29:47;;;;;;;;;3.33;3.00;;;;;13.28;70.46;100407.94;2091930;28;46484;-59
2022/11/15 01:30:47;;;;;;;;;4.00;4.00;;;;;13.28;70.47;100397.28;2093896;28;46283;-59
2022/11/15 01:31:47;;;;;;;;;3.00;2.67;;;;;13.27;70.25;100396.41;2094363;28;46924;-59
2022/11/15 01:32:48;;;;;;;;;3.00;3.00;;;;;13.27;70.29;100403.53;2095862;28;46901;-58
2022/11/15 01:33:48;;;;;;;;;3.67;3.67;;;;;13.27;70.64;100401.75;2094346;28;46269;-60
2022/11/15 01:34:49;;;;;;;;;3.00;3.00;;;;;13.25;70.41;100395.63;2088041;28;47213;-60
2022/11/15 01:35:49;;;;;;;;;5.33;5.33;;;;;13.25;70.57;100396.47;2091029;28;46717;-60
2022/11/15 01:36:49;;;;;;;;;5.00;5.00;;;;;13.25;70.09;100393.81;2094179;28;47051;-61
2022/11/15 01:37:50;;;;;;;;;5.00;5.00;;;;;13.24;70.46;100392.06;2090573;28;46493;-60
2022/11/15 01:38:55;;;;;;;;;4.33;4.33;;;;;13.24;70.70;100393.88;2087727;28;45581;-60
2022/11/15 01:39:55;;;;;;;;;5.75;5.50;;;;;13.22;70.32;100393.06;2094151;28;45720;-59
2022/11/15 01:40:55;;;;;;;;;6.33;4.00;;;;;13.21;70.33;100389.53;2095717;28;46417;-59
2022/11/15 01:41:56;;;;;;;;;6.00;4.33;;;;;13.20;70.40;100387.78;2093991;28;46628;-58
2022/11/15 01:42:56;;;;;;;;;5.33;5.33;;;;;13.19;70.20;100386.03;2088127;28;46011;-60
2022/11/15 01:44:31;;;;;;;;;6.00;5.00;;;;;13.17;70.42;100385.19;2091795;28;46214;-60
2022/11/15 01:45:31;;;;;;;;;6.00;6.00;;;;;13.15;70.50;100389.72;2088132;28;46761;-61
2022/11/15 01:46:35;;;;;;;;;4.33;4.33;;;;;13.15;70.34;100389.72;2094698;28;47278;-59
2022/11/15 01:47:44;;;;;;;;;4.00;4.00;;;;;13.13;70.44;100394.25;2094244;28;47489;-60
2022/11/15 01:48:45;;;;;;;;;5.25;5.25;;;;;13.12;70.45;100381.84;2095676;28;46332;-59
2022/11/15 01:49:55;;;;;;;;;5.00;5.00;;;;;13.11;70.44;100385.44;2092373;28;46352;-60
2022/11/15 01:50:56;;;;;;;;;5.50;5.00;;;;;13.10;70.42;100391.69;2094476;28;45425;-60
2022/11/15 01:51:57;;;;;;;;;3.75;3.75;;;;;13.09;70.41;100383.78;2094471;28;46741;-59
2022/11/15 01:52:58;;;;;;;;;5.00;5.00;;;;;13.10;70.37;100388.16;2088445;28;46887;-61
2022/11/15 01:54:09;;;;;;;;;5.00;5.00;;;;;13.07;70.35;100383.78;2090979;28;46539;-60
2022/11/15 01:55:24;;;;;;;;;4.00;4.00;;;;;13.06;70.22;100376.72;2087085;28;46283;-61
2022/11/15 01:56:29;;;;;;;;;4.75;4.75;;;;;13.05;70.35;100376.78;2094993;28;46971;-61
2022/11/15 01:57:30;;;;;;;;;6.25;4.00;;;;;13.04;70.22;100372.41;2094376;28;46581;-59
2022/11/15 01:58:31;;;;;;;;;4.00;4.00;;;;;13.03;70.38;100368.88;2092292;28;46733;-59
2022/11/15 01:59:33;;;;;;;;;5.00;4.00;;;;;13.02;69.99;100372.47;2092619;28;46564;-59
2022/11/15 02:00:33;;;;;;;;;3.25;3.25;;;;;12.99;70.23;100369.03;2093688;28;46576;-61
2022/11/15 02:01:34;;;;;;;;;5.00;5.00;;;;;12.95;69.90;100366.47;2091146;28;46662;-60
2022/11/15 02:02:36;;;;;;;;;4.25;4.25;;;;;12.94;69.97;100367.41;2096196;28;46529;-60
2022/11/15 02:03:50;;;;;;;;;4.50;3.75;;;;;12.93;70.13;100359.47;2096017;28;46925;-60
2022/11/15 02:04:51;;;;;;;;;4.75;4.75;;;;;12.93;70.17;100359.47;2097057;28;46757;-61
2022/11/15 02:05:52;;;;;;;;;11.00;10.00;;;;;12.92;70.11;100349.75;2093538;28;46804;-59
2022/11/15 02:06:53;;;;;;;;;13.25;11.25;;;;;12.92;70.25;100353.28;2093986;27;46321;-60
2022/11/15 02:07:54;;;;;;;;;14.50;11.00;;;;;12.92;70.23;100353.28;2095354;28;46810;-60
2022/11/15 02:08:56;;;;;;;;;7.67;7.67;;;;;12.93;70.34;100349.69;2096870;28;46545;-61
2022/11/15 02:10:06;;;;;;;;;8.50;6.50;;;;;12.93;70.10;100347.03;2091580;28;46372;-61
2022/11/15 02:11:08;;;;;;;;;6.50;6.50;;;;;12.95;70.10;100346.97;2093445;28;47011;-62
2022/11/15 02:12:12;;;;;;;;;7.25;5.50;;;;;12.94;69.85;100347.88;2095553;28;47048;-59
2022/11/15 02:13:15;;;;;;;;;4.75;4.75;;;;;12.93;70.01;100343.50;2088743;28;46816;-59
2022/11/15 02:14:19;;;;;;;;;6.00;6.00;;;;;12.92;69.87;100342.63;2092466;28;47046;-60
2022/11/15 02:15:20;;;;;;;;;4.00;4.00;;;;;12.93;70.02;100344.34;2095967;28;46558;-60
2022/11/15 02:16:29;;;;;;;;;6.67;5.00;;;;;12.92;69.91;100345.28;2096528;28;46348;-58
2022/11/15 02:18:16;;;;;;;;;5.50;4.75;;;;;12.93;70.14;100338.16;2095246;28;46309;-61
2022/11/15 02:19:40;;;;;;;;;5.25;4.00;;;;;12.91;69.62;100348.00;2091915;28;46585;-58
2022/11/15 02:20:48;;;;;;;;;5.25;3.25;;;;;12.89;69.64;100341.88;2095744;28;46192;-60
2022/11/15 02:21:57;;;;;;;;;3.50;3.50;;;;;12.87;69.55;100333.09;2095027;28;46759;-58
2022/11/15 02:23:29;;;;;;;;;5.00;5.00;;;;;12.84;69.57;100333.19;2096710;28;46489;-58
2022/11/15 02:24:55;;;;;;;;;6.00;5.00;;;;;12.80;69.64;100335.09;2072476;28;46618;-58
2022/11/15 02:26:17;;;;;;;;;5.25;5.25;;;;;12.80;69.75;100327.09;2072689;28;46151;-60
2022/11/15 02:27:35;;;;;;;;;4.25;4.25;;;;;12.81;69.71;100330.63;2070885;28;46201;-59
2022/11/15 02:28:53;;;;;;;;;3.75;3.75;;;;;12.80;69.38;100323.56;2062136;28;47225;-61
2022/11/15 02:29:53;;;;;;;;;4.00;4.00;;;;;12.79;69.45;100332.47;2063245;28;46700;-61
2022/11/15 02:31:14;;;;;;;;;4.67;4.67;;;;;12.77;69.54;100329.00;2073678;28;46296;-59
2022/11/15 02:32:36;;;;;;;;;3.00;2.75;;;;;12.75;69.37;100320.22;2070392;28;47341;-60
2022/11/15 02:34:04;;;;;;;;;4.00;4.00;;;;;12.72;69.47;100323.88;2066445;28;46118;-60
2022/11/15 02:35:12;;;;;;;;;5.00;5.00;;;;;12.72;69.43;100317.69;2070967;28;46563;-59
2022/11/15 02:36:28;;;;;;;;;4.00;4.00;;;;;12.71;69.34;100313.28;2071682;28;45650;-58
2022/11/15 02:37:51;;;;;;;;;3.75;3.75;;;;;12.70;69.34;100314.19;2069964;28;46362;-60
2022/11/15 02:39:01;;;;;;;;;4.25;4.25;;;;;12.66;69.37;100308.97;2069899;28;46500;-59
2022/11/15 02:40:07;;;;;;;;;5.00;4.25;;;;;12.66;69.23;100314.28;2070102;28;46429;-58
2022/11/15 02:41:19;;;;;;;;;5.25;4.00;;;;;12.65;69.19;100309.03;2070683;28;46980;-60
2022/11/15 02:43:58;;;;;;;;;7.00;4.00;;;;;12.62;68.99;100299.38;2069239;28;47031;-59
2022/11/15 02:45:05;;;;;;;;;4.00;4.00;;;;;12.60;69.33;100298.56;2068335;28;46776;-59
2022/11/15 02:47:12;;;;;;;;;3.50;3.50;;;;;12.59;69.02;100307.47;2069736;28;47232;-60
2022/11/15 02:48:00;;;;;;;;;5.00;4.00;;;;;12.57;69.01;100303.97;2051906;28;46712;-59
2022/11/15 02:49:01;;;;;;;;;5.50;5.50;;;;;12.57;69.07;100305.78;2054875;28;46438;-60
2022/11/15 02:50:06;;;;;;;;;3.33;3.33;;;;;12.56;68.92;100301.38;2058139;28;46430;-59
2022/11/15 02:51:07;;;;;;;;;4.75;3.75;;;;;12.54;69.10;100296.09;2060851;28;46711;-58
2022/11/15 02:52:07;;;;;;;;;3.33;3.33;;;;;12.54;68.78;100298.78;2049473;28;46309;-58
2022/11/15 02:53:08;;;;;;;;;4.33;4.33;;;;;12.53;69.04;100293.50;2056279;28;46696;-60
2022/11/15 02:54:21;;;;;;;;;5.25;5.00;;;;;12.52;68.66;100289.09;2053421;28;46461;-61
2022/11/15 02:55:30;;;;;;;;;3.25;3.25;;;;;12.49;68.87;100290.09;2053228;28;46788;-61
2022/11/15 02:56:31;;;;;;;;;5.00;4.00;;;;;12.48;68.88;100292.81;2048325;28;46420;-58
2022/11/15 02:57:39;;;;;;;;;4.33;3.00;;;;;12.49;69.06;100289.22;2042097;28;46163;-59
2022/11/15 02:58:48;;;;;;;;;4.00;4.00;;;;;12.50;68.94;100286.50;2046229;28;47141;-60
2022/11/15 02:59:57;;;;;;;;;4.00;4.00;;;;;12.51;68.87;100284.72;2045242;28;46419;-60
2022/11/15 03:01:00;;;;;;;;;4.25;4.25;;;;;12.52;68.94;100283.78;2050293;28;46694;-59
2022/11/15 03:02:20;;;;;;;;;3.75;3.75;;;;;12.50;69.01;100281.19;2054996;28;46836;-60
2022/11/15 03:03:33;;;;;;;;;2.00;2.00;;;;;12.51;69.02;100274.06;2062807;28;46611;-60
2022/11/15 03:04:45;;;;;;;;;3.00;3.00;;;;;12.48;68.59;100269.72;2068986;28;46597;-60
2022/11/15 03:05:56;;;;;;;;;3.00;3.00;;;;;12.47;68.82;100267.13;2067573;28;45139;-60
2022/11/15 03:07:29;;;;;;;;;2.25;2.25;;;;;12.46;68.83;100266.25;2070404;28;45137;-59
2022/11/15 03:08:47;;;;;;;;;4.25;4.00;;;;;12.45;68.82;100260.97;2070430;28;46882;-59
2022/11/15 03:10:05;;;;;;;;;3.75;2.75;;;;;12.43;69.02;100258.38;2069810;28;46369;-60
2022/11/15 03:11:13;;;;;;;;;2.50;2.50;;;;;12.42;68.99;100264.63;2069315;28;46918;-60
2022/11/15 03:12:27;;;;;;;;;4.50;4.50;;;;;12.42;69.21;100263.75;2065143;28;46647;-61
2022/11/15 03:13:28;;;;;;;;;4.00;4.00;;;;;12.41;69.04;100260.22;2069791;28;45791;-60
2022/11/15 03:14:28;;;;;;;;;6.33;4.00;;;;;12.41;69.10;100254.03;2064206;28;46440;-60
2022/11/15 03:15:38;;;;;;;;;3.00;3.00;;;;;12.43;69.17;100260.16;2069544;28;47057;-59
2022/11/15 03:16:50;;;;;;;;;5.25;3.00;;;;;12.43;69.19;100255.69;2068198;28;45843;-59
2022/11/15 03:18:01;;;;;;;;;5.25;5.00;;;;;12.44;69.15;100257.44;2068441;28;46073;-61
2022/11/15 03:19:13;;;;;;;;;6.00;4.00;;;;;12.46;68.92;100246.75;2068034;28;46002;-58
2022/11/15 03:20:17;;;;;;;;;4.00;4.00;;;;;12.46;69.47;100244.97;2065762;28;45071;-59
2022/11/15 03:21:21;;;;;;;;;4.00;3.50;;;;;12.48;69.22;100259.09;2066119;28;46886;-60
2022/11/15 03:22:26;;;;;;;;;4.50;4.00;;;;;12.49;69.17;100247.50;2063546;28;47014;-61
2022/11/15 03:23:30;;;;;;;;;5.50;4.00;;;;;12.51;68.94;100247.44;2069814;28;46443;-58
2022/11/15 03:24:34;;;;;;;;;3.00;3.00;;;;;12.51;69.02;100248.31;2067218;28;46963;-61
2022/11/15 03:25:39;;;;;;;;;3.00;3.00;;;;;12.52;68.86;100242.06;2081688;28;47007;-59
2022/11/15 03:26:43;;;;;;;;;6.50;6.50;;;;;12.52;68.91;100244.72;2086930;28;46392;-60
2022/11/15 03:27:50;;;;;;;;;3.00;3.00;;;;;12.53;68.87;100245.59;2083856;28;46582;-59
2022/11/15 03:28:56;;;;;;;;;3.25;3.25;;;;;12.54;69.02;100242.88;2081212;28;46841;-59
2022/11/15 03:30:02;;;;;;;;;3.00;3.00;;;;;12.55;69.12;100238.41;2082724;28;46746;-59
2022/11/15 03:31:46;;;;;;;;;4.00;4.00;;;;;12.55;68.75;100235.75;2085561;28;46519;-60
2022/11/15 03:32:29;;;;;;;;;6.00;3.75;;;;;12.55;68.62;100230.44;2083671;28;47206;-60
2022/11/15 03:33:30;;;;;;;;;3.00;3.00;;;;;12.54;68.90;100234.88;2084946;28;46438;-60
2022/11/15 03:34:52;;;;;;;;;4.25;3.00;;;;;12.54;68.58;100231.38;2086845;28;46724;-61
2022/11/15 03:35:53;;;;;;;;;4.00;4.00;;;;;12.52;68.51;100222.56;2082257;28;46428;-60
2022/11/15 03:36:54;;;;;;;;;5.25;5.25;;;;;12.52;68.58;100230.56;2081469;28;46491;-58
2022/11/15 03:38:08;;;;;;;;;4.00;4.00;;;;;12.50;68.81;100225.28;2082367;28;47760;-59
2022/11/15 03:39:08;;;;;;;;;3.00;3.00;;;;;12.49;68.78;100228.00;2078354;28;46946;-61
2022/11/15 03:40:10;;;;;;;;;2.67;2.67;;;;;12.50;68.86;100235.94;2073717;28;46665;-59
2022/11/15 03:41:22;;;;;;;;;4.00;4.00;;;;;12.51;68.80;100220.84;2078891;28;46420;-59
2022/11/15 03:42:30;;;;;;;;;4.00;3.00;;;;;12.52;69.11;100233.22;2077423;28;46664;-59
2022/11/15 03:43:42;;;;;;;;;1.75;1.00;;;;;12.53;68.75;100233.16;2073239;28;46483;-59
2022/11/15 03:44:52;;;;;;;;;4.00;4.00;;;;;12.53;68.72;100225.16;2077196;28;46300;-59
2022/11/15 03:46:01;;;;;;;;;6.75;4.25;;;;;12.55;68.88;100222.44;2078698;28;46283;-60
2022/11/15 03:47:11;;;;;;;;;3.75;3.75;;;;;12.54;68.78;100221.59;2075107;28;46470;-59
2022/11/15 03:48:20;;;;;;;;;4.00;4.00;;;;;12.54;68.57;100220.72;2074868;28;45780;-60
2022/11/15 03:49:27;;;;;;;;;5.75;5.75;;;;;12.53;68.67;100226.97;2075377;28;46542;-59
2022/11/15 03:50:29;;;;;;;;;4.75;4.75;;;;;12.51;68.68;100224.38;2078593;28;46469;-60
2022/11/15 03:51:29;;;;;;;;;4.00;4.00;;;;;12.51;68.66;100227.03;2078722;28;46810;-60
2022/11/15 03:52:33;;;;;;;;;5.33;5.00;;;;;12.51;69.14;100226.16;2077292;28;46194;-60
2022/11/15 03:53:33;;;;;;;;;4.50;4.50;;;;;12.52;68.70;100225.22;2070688;28;46566;-59
2022/11/15 03:54:34;;;;;;;;;5.00;3.00;;;;;12.51;68.54;100223.50;2077799;28;46505;-60
2022/11/15 03:55:34;;;;;;;;;5.00;5.00;;;;;12.50;68.68;100219.09;2077212;28;46088;-61
2022/11/15 03:56:34;;;;;;;;;4.00;4.00;;;;;12.49;68.83;100222.69;2078752;28;46251;-60
2022/11/15 03:57:35;;;;;;;;;4.00;4.00;;;;;12.49;68.62;100222.69;2075034;28;46953;-60
2022/11/15 03:58:35;;;;;;;;;2.33;2.33;;;;;12.48;68.55;100221.81;2070733;28;46512;-60
2022/11/15 03:59:35;;;;;;;;;3.00;3.00;;;;;12.46;68.53;100220.16;2061971;28;46412;-60
2022/11/15 04:00:36;;;;;;;;;5.00;5.00;;;;;12.46;68.64;100212.16;2073190;28;46658;-59
2022/11/15 04:01:36;;;;;;;;;3.33;3.00;;;;;12.45;68.66;100207.75;2078916;28;46213;-60
2022/11/15 04:02:36;;;;;;;;;4.33;4.00;;;;;12.46;68.80;100215.69;2078308;28;47398;-60
2022/11/15 04:03:37;;;;;;;;;4.00;4.00;;;;;12.46;68.94;100213.03;2076781;28;46394;-59
2022/11/15 04:04:37;;;;;;;;;3.67;3.67;;;;;12.47;68.79;100208.59;2071025;28;45375;-59
2022/11/15 04:05:37;;;;;;;;;4.00;3.00;;;;;12.48;68.64;100208.53;2078088;28;46762;-59
2022/11/15 04:06:38;;;;;;;;;5.00;4.00;;;;;12.48;68.58;100220.97;2078814;28;46190;-59
2022/11/15 04:07:38;;;;;;;;;3.00;3.00;;;;;12.48;68.60;100210.31;2078517;28;46895;-60
2022/11/15 04:08:38;;;;;;;;;2.33;2.33;;;;;12.47;68.62;100206.78;2078144;28;46652;-61
2022/11/15 04:10:01;;;;;;;;;3.00;3.00;;;;;12.48;68.70;100205.84;2078875;28;46666;-59
2022/11/15 04:10:59;;;;;;;;;4.00;3.00;;;;;12.50;68.78;100206.66;2077636;28;46497;-61
2022/11/15 04:11:59;;;;;;;;;2.00;2.00;;;;;12.49;68.51;100202.28;2079809;28;46351;-60
2022/11/15 04:13:02;;;;;;;;;2.00;2.00;;;;;12.50;68.69;100203.13;2083638;28;45374;-60
2022/11/15 04:14:02;;;;;;;;;2.75;2.75;;;;;12.50;68.35;100206.66;2082482;28;46592;-60
2022/11/15 04:15:09;;;;;;;;;2.00;0.00;;;;;12.50;68.48;100203.13;2079347;28;46466;-60
2022/11/15 04:16:09;;;;;;;;;1.75;1.00;;;;;12.49;68.56;100207.59;2079581;28;46802;-60
2022/11/15 04:17:09;;;;;;;;;2.00;2.00;;;;;12.48;68.47;100208.53;2079099;28;46668;-60
2022/11/15 04:18:10;;;;;;;;;3.33;3.00;;;;;12.49;68.58;100204.06;2079662;28;45907;-59
2022/11/15 04:24:36;;;;;;;;;4.00;2.50;;;;;12.45;68.50;100202.41;2079870;28;46032;-58
2022/11/15 04:25:36;;;;;;;;;2.00;2.00;;;;;12.40;68.70;100194.63;2079791;28;46866;-59
2022/11/15 04:26:37;;;;;;;;;2.67;2.67;;;;;12.38;68.51;100199.13;2078610;28;46905;-60
2022/11/15 04:27:37;;;;;;;;;1.67;1.67;;;;;12.36;68.79;100204.53;2079338;28;46363;-59
2022/11/15 04:29:56;;;;;;;;;2.00;2.00;;;;;12.35;68.69;100205.44;2079281;28;46981;-61
2022/11/15 04:30:57;;;;;;;;;4.00;3.33;;;;;12.36;68.77;100199.19;2078229;28;46431;-60
2022/11/15 04:31:57;;;;;;;;;3.00;3.00;;;;;12.35;68.80;100202.78;2079902;28;45942;-60
2022/11/15 04:32:58;;;;;;;;;3.00;2.00;;;;;12.33;68.92;100199.31;2079370;28;46550;-60
2022/11/15 04:33:58;;;;;;;;;1.33;1.33;;;;;12.32;68.74;100197.59;2084257;28;46594;-61
2022/11/15 04:34:58;;;;;;;;;2.00;2.00;;;;;12.30;68.87;100194.09;2080754;28;46208;-61
2022/11/15 04:37:19;;;;;;;;;2.00;2.00;;;;;12.30;68.98;100193.22;2088313;28;46968;-60
2022/11/15 04:38:20;;;;;;;;;4.00;2.67;;;;;12.30;68.84;100194.09;2089173;28;46769;-59
2022/11/15 04:39:20;;;;;;;;;2.67;2.67;;;;;12.31;69.10;100189.63;2093340;28;46978;-60
2022/11/15 04:40:20;;;;;;;;;2.00;2.00;;;;;12.30;68.95;100194.09;2094423;28;46346;-61
2022/11/15 04:41:21;;;;;;;;;3.67;2.00;;;;;12.30;69.12;100185.25;2087535;28;46262;-60
2022/11/15 04:42:21;;;;;;;;;2.33;2.33;;;;;12.30;68.93;100186.09;2091151;28;46430;-60
2022/11/15 04:43:22;;;;;;;;;3.00;2.00;;;;;12.29;69.00;100176.38;2088409;28;46789;-59
2022/11/15 04:44:22;;;;;;;;;2.00;1.67;;;;;12.29;69.01;100175.53;2086692;28;46432;-59
2022/11/15 04:45:23;;;;;;;;;3.00;3.00;;;;;12.28;69.12;100185.31;2068150;28;46514;-60
2022/11/15 04:46:24;;;;;;;;;1.33;1.00;;;;;12.27;69.39;100180.91;2067821;28;47033;-60
2022/11/15 04:47:24;;;;;;;;;4.75;4.25;;;;;12.25;69.02;100182.75;2061956;28;46421;-59
2022/11/15 04:48:24;;;;;;;;;3.67;3.00;;;;;12.23;69.06;100173.09;2067303;28;46231;-59
2022/11/15 04:49:25;;;;;;;;;6.33;4.67;;;;;12.22;69.15;100174.91;2061981;28;46286;-60
2022/11/15 04:50:25;;;;;;;;;5.00;5.00;;;;;12.23;69.18;100170.44;2061959;28;46599;-60
2022/11/15 04:51:25;;;;;;;;;3.00;3.00;;;;;12.22;69.27;100174.03;2066223;28;46833;-60
2022/11/15 04:52:26;;;;;;;;;1.00;1.00;;;;;12.21;69.33;100164.31;2063932;28;46896;-61
2022/11/15 04:53:26;;;;;;;;;3.00;3.00;;;;;12.19;69.24;100169.66;2058188;28;46399;-59
2022/11/15 04:54:27;;;;;;;;;3.33;3.33;;;;;12.17;69.44;100166.19;2053169;28;46031;-58
2022/11/15 04:55:27;;;;;;;;;2.33;2.33;;;;;12.15;69.35;100164.53;2061783;28;47108;-60
2022/11/15 04:56:27;;;;;;;;;3.67;3.67;;;;;12.12;69.52;100160.19;2053669;28;46317;-60
2022/11/15 04:57:27;;;;;;;;;4.00;4.00;;;;;12.11;69.62;100163.78;2053657;28;45816;-60
2022/11/15 04:58:28;;;;;;;;;3.67;3.33;;;;;12.10;69.49;100153.22;2061278;28;47338;-60
2022/11/15 04:59:28;;;;;;;;;4.67;4.67;;;;;12.09;69.56;100160.31;2060623;28;46702;-58
2022/11/15 05:00:29;;;;;;;;;3.67;3.67;;;;;12.09;69.75;100160.31;2057845;28;46511;-60
2022/11/15 05:01:30;;;;;;;;;3.50;3.50;;;;;12.10;69.67;100155.88;2060369;28;46652;-61
2022/11/15 05:04:18;;;;;;;;;4.33;4.33;;;;;12.09;69.54;100157.66;2060785;28;47113;-62
2022/11/15 05:05:09;;;;;;;;;4.75;3.00;;;;;12.11;69.81;100157.59;2061616;28;46790;-60
2022/11/15 05:06:09;;;;;;;;;3.00;3.00;;;;;12.11;69.80;100147.81;2061829;28;45616;-60
2022/11/15 05:07:10;;;;;;;;;2.00;2.00;;;;;12.11;69.61;100157.59;2061743;28;46205;-60
2022/11/15 05:08:10;;;;;;;;;3.33;3.33;;;;;12.10;69.85;100155.88;2061516;28;46441;-62
2022/11/15 05:09:12;;;;;;;;;4.00;4.00;;;;;12.08;69.67;100154.13;2061648;28;46540;-62